Station Historical Data
Daily Summary for January 6, 2017 Units:  Both    English   Metric
« Previous Day
Next Day »
Daily Weekly Monthly Yearly Custom
  High: Low: Average:
Temperature: 29.4 °F /  -1.4 °C 28.4 °F /  -2 °C 29.1 °F /  -1.6 °C
Dew Point: 26.8 °F /  -2.9 °C 25.6 °F /  -3.6 °C 26.4 °F /  -3.1 °C
Humidity: 90% 89% 89%
Wind Speed: 4.6mph /  7.4km/h - 1.1mph /  1.8km/h
Wind Gust: 4.6mph /  7.4km/h - -
Wind- - SSE
Pressure: 30.10 in /  1019.2 hPa 30.07 in /  1018.2 hPa -
Precipitation: 0.00 in /  0 mm    
Historical Graphs
 
 
Tabular Data for January 6, 2017
Time Temperature Dew Point Pressure Wind Wind Speed Wind Gust Humidity Rainfall Rate (Hourly) solar Conditions
20:48 29.2 °F /  -1.6 °C 26.4 °F /  -3.1 °C 30.08in /  1018.5hPa ENE 3.5mph /  5.6km/h 3.5mph /  5.6km/h 89% 0.00in /  0mm 0.0 W/m2
20:49 29.2 °F /  -1.6 °C 26.4 °F /  -3.1 °C 30.08in /  1018.5hPa SE 1.2mph /  1.9km/h 1.2mph /  1.9km/h 89% 0.00in /  0mm 0.0 W/m2
20:50 29.3 °F /  -1.5 °C 26.5 °F /  -3.1 °C 30.08in /  1018.5hPa South 4.6mph /  7.4km/h 4.6mph /  7.4km/h 89% 0.00in /  0mm 0.0 W/m2
20:52 29.3 °F /  -1.5 °C 26.5 °F /  -3.1 °C 30.07in /  1018.2hPa WSW 1.2mph /  1.9km/h 1.2mph /  1.9km/h 89% 0.00in /  0mm 0.0 W/m2
20:57 29.4 °F /  -1.4 °C 26.6 °F /  -3 °C 30.07in /  1018.2hPa Calm     89% 0.00in /  0mm 0.0 W/m2
21:02 29.4 °F /  -1.4 °C 26.6 °F /  -3 °C 30.07in /  1018.2hPa East 1.2mph /  1.9km/h 1.2mph /  1.9km/h 89% 0.00in /  0mm 0.0 W/m2 -RA
21:07 29.4 °F /  -1.4 °C 26.6 °F /  -3 °C 30.08in /  1018.5hPa Calm     89% 0.00in /  0mm 0.0 W/m2 -RA
21:12 29.4 °F /  -1.4 °C 26.6 °F /  -3 °C 30.09in /  1018.8hPa Calm     89% 0.00in /  0mm 0.0 W/m2 -RA
21:17 29.4 °F /  -1.4 °C 26.6 °F /  -3 °C 30.09in /  1018.8hPa ESE 1.2mph /  1.9km/h 1.2mph /  1.9km/h 89% 0.00in /  0mm 0.0 W/m2 -RA
21:22 29.4 °F /  -1.4 °C 26.6 °F /  -3 °C 30.08in /  1018.5hPa Calm     89% 0.00in /  0mm 0.0 W/m2 -RA
21:27 29.4 °F /  -1.4 °C 26.6 °F /  -3 °C 30.09in /  1018.8hPa WSW 2.0mph /  3.2km/h 2.0mph /  3.2km/h 89% 0.00in /  0mm 0.0 W/m2 -RA
21:32 29.4 °F /  -1.4 °C 26.6 °F /  -3 °C 30.09in /  1018.8hPa Calm     89% 0.00in /  0mm 0.0 W/m2 -RA
21:37 29.3 °F /  -1.5 °C 26.5 °F /  -3.1 °C 30.08in /  1018.5hPa East 1.2mph /  1.9km/h 1.2mph /  1.9km/h 89% 0.00in /  0mm 0.0 W/m2 -RA
21:42 29.3 °F /  -1.5 °C 26.5 °F /  -3.1 °C 30.09in /  1018.8hPa East 1.2mph /  1.9km/h 1.2mph /  1.9km/h 89% 0.00in /  0mm 0.0 W/m2 -RA
21:47 29.3 °F /  -1.5 °C 26.7 °F /  -2.9 °C 30.10in /  1019.2hPa SW 1.2mph /  1.9km/h   90% 0.00in /  0mm 0.0 W/m2 -RA
21:52 29.4 °F /  -1.4 °C 26.8 °F /  -2.9 °C 30.10in /  1019.2hPa SE 1.0mph /  1.6km/h 1.0mph /  1.6km/h 90% 0.00in /  0mm 0.0 W/m2 -RA
21:57 29.4 °F /  -1.4 °C 26.6 °F /  -3 °C 30.10in /  1019.2hPa West 1.2mph /  1.9km/h   89% 0.00in /  0mm 0.0 W/m2 -RA
22:02 29.4 °F /  -1.4 °C 26.8 °F /  -2.9 °C 30.10in /  1019.2hPa Calm     90% 0.00in /  0mm 0.0 W/m2 -RA
22:07 29.4 °F /  -1.4 °C 26.8 °F /  -2.9 °C 30.10in /  1019.2hPa East 1.2mph /  1.9km/h 1.2mph /  1.9km/h 90% 0.00in /  0mm 0.0 W/m2 -RA
22:12 29.3 °F /  -1.5 °C 26.5 °F /  -3.1 °C 30.10in /  1019.2hPa NE 1.2mph /  1.9km/h   89% 0.00in /  0mm 0.0 W/m2 -RA
22:18 29.3 °F /  -1.5 °C 26.7 °F /  -2.9 °C 30.10in /  1019.2hPa Calm     90% 0.00in /  0mm 0.0 W/m2 -RA
22:23 29.3 °F /  -1.5 °C 26.7 °F /  -2.9 °C 30.10in /  1019.2hPa Calm     90% 0.00in /  0mm 0.0 W/m2 -RA
22:28 29.2 °F /  -1.6 °C 26.4 °F /  -3.1 °C 30.10in /  1019.2hPa Calm     89% 0.00in /  0mm 0.0 W/m2 -RA
22:33 29.2 °F /  -1.6 °C 26.4 °F /  -3.1 °C 30.10in /  1019.2hPa ENE 1.2mph /  1.9km/h 1.2mph /  1.9km/h 89% 0.00in /  0mm 0.0 W/m2 -RA
22:38 29.3 °F /  -1.5 °C 26.5 °F /  -3.1 °C 30.10in /  1019.2hPa WSW 3.5mph /  5.6km/h 3.5mph /  5.6km/h 89% 0.00in /  0mm 0.0 W/m2 -RA
22:43 29.3 °F /  -1.5 °C 26.5 °F /  -3.1 °C 30.10in /  1019.2hPa SW 1.2mph /  1.9km/h 1.2mph /  1.9km/h 89% 0.00in /  0mm 0.0 W/m2 -RA
22:48 29.2 °F /  -1.6 °C 26.4 °F /  -3.1 °C 30.09in /  1018.8hPa SSE 1.2mph /  1.9km/h 1.2mph /  1.9km/h 89% 0.00in /  0mm 0.0 W/m2 -RA
22:53 29.1 °F /  -1.6 °C 26.3 °F /  -3.2 °C 30.08in /  1018.5hPa West 1.2mph /  1.9km/h   89% 0.00in /  0mm 0.0 W/m2 -RA
22:58 29.1 °F /  -1.6 °C 26.3 °F /  -3.2 °C 30.08in /  1018.5hPa East 1.2mph /  1.9km/h 1.2mph /  1.9km/h 89% 0.00in /  0mm 0.0 W/m2 -RA
23:03 29.0 °F /  -1.7 °C 26.2 °F /  -3.2 °C 30.08in /  1018.5hPa Calm     89% 0.00in /  0mm 0.0 W/m2 -RA
23:08 29.0 °F /  -1.7 °C 26.2 °F /  -3.2 °C 30.09in /  1018.8hPa Calm     89% 0.00in /  0mm 0.0 W/m2 -RA
23:13 29.0 °F /  -1.7 °C 26.2 °F /  -3.2 °C 30.08in /  1018.5hPa SSE 1.2mph /  1.9km/h   89% 0.00in /  0mm 0.0 W/m2 -RA
23:18 28.8 °F /  -1.8 °C 26.0 °F /  -3.3 °C 30.07in /  1018.2hPa East 1.2mph /  1.9km/h 1.2mph /  1.9km/h 89% 0.00in /  0mm 0.0 W/m2 -RA
23:23 28.7 °F /  -1.8 °C 25.9 °F /  -3.4 °C 30.09in /  1018.8hPa NW 1.2mph /  1.9km/h 1.2mph /  1.9km/h 89% 0.00in /  0mm 0.0 W/m2 -RA
23:28 28.6 °F /  -1.9 °C 25.8 °F /  -3.4 °C 30.10in /  1019.2hPa NNE 1.2mph /  1.9km/h 1.2mph /  1.9km/h 89% 0.00in /  0mm 0.0 W/m2 -RA
23:33 28.6 °F /  -1.9 °C 25.8 °F /  -3.4 °C 30.10in /  1019.2hPa WNW 1.2mph /  1.9km/h 1.2mph /  1.9km/h 89% 0.00in /  0mm 0.0 W/m2 -RA
23:38 28.5 °F /  -1.9 °C 25.7 °F /  -3.5 °C 30.10in /  1019.2hPa East 1.2mph /  1.9km/h 1.2mph /  1.9km/h 89% 0.00in /  0mm 0.0 W/m2 -RA
23:43 28.6 °F /  -1.9 °C 26.0 °F /  -3.3 °C 30.10in /  1019.2hPa NNE 1.2mph /  1.9km/h 1.2mph /  1.9km/h 90% 0.00in /  0mm 0.0 W/m2 -RA
23:48 28.5 °F /  -1.9 °C 25.9 °F /  -3.4 °C 30.10in /  1019.2hPa Calm   0.1mph /  0.2km/h 90% 0.00in /  0mm 0.0 W/m2 -RA
23:53 28.6 °F /  -1.9 °C 25.8 °F /  -3.4 °C 30.08in /  1018.5hPa SSE 1.2mph /  1.9km/h 1.2mph /  1.9km/h 89% 0.00in /  0mm 0.0 W/m2 -RA
23:58 28.4 °F /  -2 °C 25.6 °F /  -3.6 °C 30.10in /  1019.2hPa NE 4.6mph /  7.4km/h 4.6mph /  7.4km/h 89% 0.00in /  0mm 0.0 W/m2 -RA
Piedmont Bend
Compliments of Weather Underground - 4 mb